Аэропорт: Шереметьево. Москва

ICAO: UUEE

METAR:
2022-01-28 09:00:00
UUEE 280900Z 16006MPS 2900 -SN SCT011 M06/M08 Q1002 RESN R06R/590329 R06C/590329 R06L/590230 TEMPO 0700 +SHSN BKN005 BKN012CB
METAR:
2022-01-28 06:59:00
TAF AMD UUEE 280659Z 2806/2906 16006MPS 2100 -SN BKN009 TXM05/2812Z TNM07/2806Z TEMPO 2806/2818 16009G14MPS 0700 +SHSN -FZRA BKN004 BKN011CB TEMPO 2818/2906 1000 SHSN BKN004 BKN011CB